BGSFBGBW

Guest
Details From BGSF - Kangerlussuaq
To BGBW - Narsarsuaq
Flight Number -
Tags generated
Created
Modified
Stats Distance 410 nm / 759 km
Max Altitude 35,000 ft / 10,668 m
Waypoints 6
Social Downloads 3
Likes 0
Share VATSIM

Download

Looking for another format? Having issues loading an existing format? Contact us
Advertisement - Login to hide

Notes

Basic altitude profile: - Ascent Rate: 2500ft/min - Ascent Speed: 250kts - Cruise Altitude: 35000ft - Cruise Speed: 420kts - Descent Rate: 1500ft/min - Descent Speed: 250kts Options: - Use NATs: no - Use PACOTS: no - Use low airways: no - Use high airways: no

Route

BGSF 6600N05000W 6400N04500W 6300N04500W 6200N04500W BGBW

ID Type Via Altitude Latitude Longitude Leg Dist Tot Dist Heading (true) Name
O BGSF APT - 0 ft / 0 m 67.01160˚ -50.71472˚ - 0 nm - Kangerlussuaq
6600N05000W LATLON - 21,500 ft / 6,553 m 66.00000˚ -50.00000˚ 63 nm 63 nm 164° / 165° -
6400N04500W LATLON - 35,000 ft / 10,668 m 64.00000˚ -45.00000˚ 174 nm 237 nm 131° / 136° -
6300N04500W LATLON - 22,900 ft / 6,980 m 63.00000˚ -45.00000˚ 60 nm 297 nm 180° / 180° -
6200N04500W LATLON - 10,100 ft / 3,078 m 62.00000˚ -45.00000˚ 60 nm 357 nm 180° / 180° -
O BGBW APT - 0 ft / 0 m 61.16052˚ -45.42598˚ 51 nm 409 nm 194° / 193° Narsarsuaq

Altitude Profile

Advertisement - Login to hide

Weather


0- 5 10 15 20 25 30 35+ Temperature / ° C

Clouds and Precipitation
Forecast for 2018-05-25 00:00 UTC. Updated 2 hours ago

Ground ~20,000 ft ~40,000 ft Winds

BGSF

Details ICAO BGSF (SFJ)
Name Kangerlussuaq
Region Greenland
Timezone America/Godthab (UTC-2.0)
Stats Elevation 165 ft / 50 m (AMSL)
Location 67.011605° -50.714721°
Runways 2
Magnetic Variation 28.856° W

METAR

BGSF 250050Z AUTO 26007KT 9999NDV -RA FEW037/// BKN042/// 01/M02 Q1010

Decode

TAF

Not found

Departure Runways

ID Width Length Bearing (true) Bearing (mag) Surface Threshold Offset Overrun Length
09 197 ft / 60 m 9,169 ft / 2,795 m 61.57° 90.43° Asphalt 0 ft / 0 m 509 ft / 155 m
10 197 ft / 60 m 9,187 ft / 2,800 m 61.55° 90.41° Asphalt 0 ft / 0 m 0 ft / 0 m
27 197 ft / 60 m 9,169 ft / 2,795 m 241.63° 270.49° Asphalt 0 ft / 0 m 171 ft / 52 m
28 197 ft / 60 m 9,187 ft / 2,800 m 241.60° 270.46° Asphalt 0 ft / 0 m 0 ft / 0 m

BGBW

Details ICAO BGBW (UAK)
Name Narsarsuaq
Region Greenland
Timezone America/Godthab (UTC-2.0)
Stats Elevation 112 ft / 34 m (AMSL)
Location 61.160516° -45.425976°
Runways 1
Magnetic Variation 22.773° W

METAR

BGBW 250050Z AUTO 20002KT 9999NDV FEW070/// BKN085/// 01/M04 Q1009

Decode

TAF

Not found

Destination Runways

ID Width Length Bearing (true) Bearing (mag) Surface Threshold Offset Overrun Length
07 148 ft / 45 m 5,921 ft / 1,805 m 40.57° 63.34° Concrete 0 ft / 0 m 0 ft / 0 m
25 148 ft / 45 m 5,921 ft / 1,805 m 220.58° 243.35° Concrete 0 ft / 0 m 279 ft / 85 m

Popular Alternatives